Time;durP1;ratioP1;P1;durP2;ratioP2;P2;SDS_P1;SDS_P2;PMS_P1;PMS_P2;Temp;Humidity;BMP_temperature;BMP_pressure;BME280_temperature;BME280_humidity;BME280_pressure;Samples;Min_cycle;Max_cycle;Signal;HPM_P1;HPM_P2
2021/12/13 00:01:35;;;;;;;9.38;4.60;;;9.90;99.90;;;;;;4791097;29;20127;-89
2021/12/13 00:04:21;;;;;;;2.42;1.33;;;9.90;99.90;;;;;;4791291;29;20074;-88
2021/12/13 00:06:51;;;;;;;3.45;1.42;;;9.90;99.90;;;;;;4817019;29;20058;-88
2021/12/13 00:09:23;;;;;;;9.15;3.75;;;10.00;99.90;;;;;;4827013;29;20062;-87
2021/12/13 00:11:54;;;;;;;5.13;2.92;;;10.00;99.90;;;;;;4827561;29;20050;-89
2021/12/13 00:14:49;;;;;;;2.75;0.98;;;10.00;99.90;;;;;;4842497;29;20066;-89
2021/12/13 00:17:25;;;;;;;4.68;4.28;;;10.00;99.90;;;;;;4826609;29;20089;-89
2021/12/13 00:20:14;;;;;;;11.45;4.32;;;10.00;99.90;;;;;;4827050;29;20049;-88
2021/12/13 00:22:46;;;;;;;12.63;5.88;;;10.00;99.90;;;;;;4866049;29;20052;-86
2021/12/13 00:25:20;;;;;;;2.17;2.05;;;10.00;99.90;;;;;;4921662;29;20131;-87
2021/12/13 00:27:58;;;;;;;7.03;6.47;;;10.00;99.90;;;;;;4913715;29;20052;-88
2021/12/13 00:30:30;;;;;;;2.30;2.13;;;10.00;99.90;;;;;;4919762;29;20060;-85
2021/12/13 00:33:19;;;;;;;12.15;5.72;;;10.00;99.90;;;;;;4916459;29;20196;-82
2021/12/13 00:35:57;;;;;;;6.05;5.40;;;10.00;99.90;;;;;;4941450;28;20110;-90
2021/12/13 00:38:27;;;;;;;9.73;2.95;;;10.10;99.90;;;;;;4958601;28;20480;-88
2021/12/13 00:41:01;;;;;;;5.63;3.78;;;10.10;99.90;;;;;;4958678;28;20043;-87
2021/12/13 00:43:35;;;;;;;9.73;3.13;;;10.10;99.90;;;;;;4958719;28;20477;-87
2021/12/13 00:46:11;;;;;;;6.75;3.58;;;10.10;99.90;;;;;;4958546;28;20117;-90
2021/12/13 00:48:41;;;;;;;4.22;2.55;;;10.10;99.90;;;;;;4975984;28;20057;-89
2021/12/13 00:51:13;;;;;;;8.23;2.33;;;10.10;99.90;;;;;;4958497;28;20082;-87
2021/12/13 00:53:46;;;;;;;10.38;3.70;;;10.20;99.90;;;;;;4958367;28;20061;-89
2021/12/13 00:56:47;;;;;;;6.85;2.17;;;10.20;99.90;;;;;;4958824;28;20480;-88
2021/12/13 00:59:28;;;;;;;4.22;3.97;;;10.20;99.90;;;;;;4959765;28;20039;-89
2021/12/13 01:02:08;;;;;;;5.93;4.80;;;10.10;99.90;;;;;;4978023;28;20058;-87
2021/12/13 01:04:54;;;;;;;7.35;3.45;;;10.10;99.90;;;;;;4995018;28;20511;-88
2021/12/13 01:07:32;;;;;;;2.17;2.08;;;10.20;99.90;;;;;;4977155;28;20054;-87
2021/12/13 01:10:17;;;;;;;4.13;3.78;;;10.10;99.90;;;;;;4977622;28;20057;-89
2021/12/13 01:13:05;;;;;;;2.08;1.83;;;10.20;99.90;;;;;;4979117;28;20109;-77
2021/12/13 01:15:44;;;;;;;3.75;2.75;;;10.20;99.90;;;;;;4964285;29;20047;-86
2021/12/13 01:18:29;;;;;;;4.18;2.22;;;10.10;99.90;;;;;;4953533;29;20051;-83
2021/12/13 01:21:14;;;;;;;1.40;1.35;;;10.20;99.90;;;;;;4954546;29;20055;-85
2021/12/13 01:23:49;;;;;;;4.97;2.85;;;10.20;99.90;;;;;;4940802;29;20052;-85
2021/12/13 01:28:59;;;;;;;3.88;2.47;;;10.20;99.90;;;;;;4937163;29;20055;-83
2021/12/13 01:31:36;;;;;;;12.00;3.13;;;10.20;99.90;;;;;;4937105;29;20093;-82
2021/12/13 01:34:04;;;;;;;6.07;3.95;;;10.10;99.90;;;;;;4937348;29;20086;-83
2021/12/13 01:36:52;;;;;;;3.10;2.55;;;10.20;99.90;;;;;;4936819;29;20071;-83
2021/12/13 01:39:23;;;;;;;6.00;3.67;;;10.10;99.90;;;;;;4921076;29;20145;-82
2021/12/13 01:42:05;;;;;;;3.47;3.17;;;10.20;99.90;;;;;;4936889;29;20059;-84
2021/12/13 01:44:40;;;;;;;2.47;2.35;;;10.20;99.90;;;;;;4937152;29;20066;-84
2021/12/13 01:47:16;;;;;;;3.92;3.63;;;10.20;99.90;;;;;;4966562;28;20212;-85
2021/12/13 01:49:48;;;;;;;4.05;3.03;;;10.10;99.90;;;;;;4992927;28;20051;-82
2021/12/13 01:52:21;;;;;;;7.93;3.17;;;10.20;99.90;;;;;;4960456;28;20475;-83
2021/12/13 01:54:47;;;;;;;8.18;3.90;;;10.10;99.90;;;;;;4976494;28;20050;-84
2021/12/13 01:59:56;;;;;;;2.85;1.60;;;10.20;99.90;;;;;;4993207;28;20058;-84
2021/12/13 02:02:28;;;;;;;7.10;2.42;;;10.10;99.90;;;;;;4976166;28;20067;-85
2021/12/13 02:05:02;;;;;;;3.00;2.35;;;10.10;99.90;;;;;;4976905;28;20050;-84
2021/12/13 02:08:06;;;;;;;8.25;4.30;;;10.20;99.90;;;;;;4993720;28;20043;-85
2021/12/13 02:10:48;;;;;;;1.55;0.95;;;10.10;99.90;;;;;;4993620;28;20250;-86
2021/12/13 02:13:33;;;;;;;2.45;2.25;;;10.20;99.90;;;;;;4976557;28;20502;-86
2021/12/13 02:18:57;;;;;;;2.08;1.98;;;10.10;99.90;;;;;;4976263;28;20514;-87
2021/12/13 02:21:29;;;;;;;0.88;0.80;;;10.20;99.90;;;;;;4976466;28;20046;-83
2021/12/13 02:27:40;;;;;;;4.20;0.85;;;10.10;99.90;;;;;;4993485;28;20061;-85
2021/12/13 02:30:18;;;;;;;1.63;1.23;;;10.10;99.90;;;;;;4976217;28;20078;-85
2021/12/13 02:32:47;;;;;;;3.78;1.95;;;10.10;99.90;;;;;;4976298;28;20053;-83
2021/12/13 02:35:14;;;;;;;3.25;0.80;;;10.10;99.90;;;;;;4975911;28;20050;-84
2021/12/13 02:37:41;;;;;;;1.33;1.23;;;10.10;99.90;;;;;;4976119;28;20050;-87
2021/12/13 02:40:09;;;;;;;2.83;2.45;;;10.10;99.90;;;;;;4976087;28;20053;-84
2021/12/13 02:42:35;;;;;;;4.63;1.02;;;10.10;99.90;;;;;;4992208;28;20050;-84
2021/12/13 02:45:26;;;;;;;2.05;0.98;;;10.10;99.90;;;;;;4975925;28;20424;-84
2021/12/13 02:48:00;;;;;;;10.00;2.90;;;10.10;99.90;;;;;;4956431;28;20043;-83
2021/12/13 02:50:40;;;;;;;4.20;2.22;;;10.10;99.90;;;;;;4956008;28;20067;-86
2021/12/13 02:53:10;;;;;;;1.25;0.88;;;10.10;99.90;;;;;;4956265;28;20384;-86
2021/12/13 02:55:37;;;;;;;2.92;2.70;;;10.10;99.90;;;;;;4956364;28;20051;-86
2021/12/13 02:58:10;;;;;;;10.25;2.30;;;10.20;99.90;;;;;;4957983;28;20058;-87
2021/12/13 03:00:57;;;;;;;4.90;2.03;;;10.10;99.90;;;;;;4959769;28;20063;-88
2021/12/13 03:03:26;;;;;;;3.53;1.95;;;10.20;99.90;;;;;;4959931;28;20065;-87
2021/12/13 03:05:54;;;;;;;6.32;3.03;;;10.10;99.90;;;;;;4977606;28;20133;-86
2021/12/13 03:08:26;;;;;;;2.63;1.42;;;10.10;99.90;;;;;;4959579;28;20043;-87
2021/12/13 03:14:40;;;;;;;0.80;0.80;;;10.00;99.90;;;;;;4977503;28;20041;-86
2021/12/13 03:17:13;;;;;;;4.25;2.95;;;10.10;99.90;;;;;;4964008;28;20109;-89
2021/12/13 03:19:41;;;;;;;3.30;1.75;;;10.00;99.90;;;;;;4960989;28;20047;-85
2021/12/13 03:22:07;;;;;;;1.17;1.17;;;10.00;99.90;;;;;;4975722;28;20062;-84
2021/12/13 03:24:37;;;;;;;1.80;1.70;;;10.00;99.90;;;;;;4975674;28;20046;-85
2021/12/13 03:27:37;;;;;;;2.70;2.35;;;10.00;99.90;;;;;;4976650;28;20051;-86
2021/12/13 03:30:09;;;;;;;3.58;2.28;;;10.00;99.90;;;;;;4945219;28;20567;-87
2021/12/13 03:32:53;;;;;;;2.88;2.33;;;10.00;99.90;;;;;;4959214;28;20046;-85
2021/12/13 03:35:49;;;;;;;4.13;2.15;;;10.00;99.90;;;;;;4976685;28;20093;-86
2021/12/13 03:38:28;;;;;;;6.63;2.70;;;10.10;99.90;;;;;;4958819;28;20058;-86
2021/12/13 03:40:59;;;;;;;16.25;1.67;;;10.00;99.90;;;;;;4959801;28;20039;-86
2021/12/13 03:43:32;;;;;;;4.05;2.00;;;10.00;99.90;;;;;;4959427;28;20058;-84
2021/12/13 03:46:03;;;;;;;5.18;2.28;;;10.00;99.90;;;;;;4958964;28;20054;-81
2021/12/13 03:48:30;;;;;;;6.15;2.92;;;10.00;99.90;;;;;;4958686;28;20388;-81
2021/12/13 03:51:00;;;;;;;4.55;2.03;;;10.10;99.90;;;;;;4958834;28;20059;-86
2021/12/13 03:53:30;;;;;;;1.65;1.13;;;10.00;99.90;;;;;;4959174;28;20085;-86
2021/12/13 03:56:08;;;;;;;2.67;1.52;;;10.00;99.90;;;;;;4956396;28;20074;-84
2021/12/13 03:58:39;;;;;;;2.88;2.22;;;10.00;99.90;;;;;;4958981;28;20372;-84
2021/12/13 04:01:17;;;;;;;2.08;1.90;;;10.00;99.90;;;;;;4958514;28;20480;-84
2021/12/13 04:03:44;;;;;;;2.40;2.20;;;10.00;99.90;;;;;;4958937;28;20054;-85
2021/12/13 04:06:14;;;;;;;5.15;2.42;;;10.00;99.90;;;;;;4958714;28;20499;-85
2021/12/13 04:08:45;;;;;;;1.42;1.02;;;10.00;99.90;;;;;;4957898;28;20484;-85
2021/12/13 04:11:11;;;;;;;2.17;1.55;;;9.90;99.90;;;;;;4977044;28;20086;-85
2021/12/13 04:13:55;;;;;;;1.52;1.08;;;9.90;99.90;;;;;;4993338;28;20090;-80
2021/12/13 04:16:48;;;;;;;1.35;1.30;;;9.90;99.90;;;;;;4967357;28;20043;-86
2021/12/13 04:19:23;;;;;;;4.82;4.40;;;9.90;99.90;;;;;;4958855;28;20047;-86
2021/12/13 04:22:00;;;;;;;1.05;0.95;;;9.80;99.90;;;;;;4958586;28;20050;-85
2021/12/13 04:24:40;;;;;;;4.70;1.45;;;9.80;99.90;;;;;;4958339;28;20557;-82
2021/12/13 04:27:16;;;;;;;2.30;1.48;;;9.80;99.90;;;;;;4957930;28;20097;-85
2021/12/13 04:29:43;;;;;;;3.53;1.55;;;9.80;99.90;;;;;;4958661;28;20126;-86
2021/12/13 04:32:27;;;;;;;4.05;0.60;;;9.80;99.90;;;;;;4957975;28;20082;-85
2021/12/13 04:34:57;;;;;;;1.77;1.60;;;9.80;99.90;;;;;;4975214;28;20055;-85
2021/12/13 04:37:32;;;;;;;1.42;1.33;;;9.80;99.90;;;;;;4975721;28;20138;-85
2021/12/13 04:40:03;;;;;;;1.85;1.73;;;9.80;99.90;;;;;;4958395;28;20458;-87
2021/12/13 04:42:29;;;;;;;0.73;0.73;;;9.80;99.90;;;;;;4958082;28;20066;-85
2021/12/13 04:45:31;;;;;;;1.35;1.25;;;9.80;99.90;;;;;;4975434;28;20038;-85
2021/12/13 04:48:16;;;;;;;26.75;3.65;;;9.70;99.90;;;;;;4937410;28;20066;-84
2021/12/13 04:51:19;;;;;;;2.10;1.70;;;9.70;99.90;;;;;;4974575;28;20078;-85
2021/12/13 04:53:58;;;;;;;1.10;0.95;;;9.60;99.90;;;;;;4975806;28;20047;-84
2021/12/13 04:56:28;;;;;;;2.08;1.52;;;9.60;99.90;;;;;;4958020;28;20054;-84
2021/12/13 04:58:58;;;;;;;6.70;2.35;;;9.50;99.90;;;;;;4941966;28;20062;-84
2021/12/13 05:01:24;;;;;;;2.50;2.30;;;9.40;99.90;;;;;;4957737;28;20073;-85
2021/12/13 05:03:55;;;;;;;1.15;1.10;;;9.40;99.90;;;;;;4957891;28;20055;-84
2021/12/13 05:06:27;;;;;;;1.42;1.35;;;9.40;99.90;;;;;;4982055;28;20055;-82
2021/12/13 05:08:58;;;;;;;1.38;1.02;;;9.30;99.90;;;;;;4992218;28;20081;-83
2021/12/13 05:11:44;;;;;;;1.63;0.75;;;9.30;99.90;;;;;;4964724;28;20039;-84
2021/12/13 05:14:11;;;;;;;6.93;2.92;;;9.20;99.90;;;;;;4975553;28;20042;-84
2021/12/13 05:17:05;;;;;;;3.40;2.55;;;9.20;99.90;;;;;;4975180;28;20487;-86
2021/12/13 05:19:35;;;;;;;1.27;1.17;;;9.20;99.90;;;;;;4957663;28;20057;-84
2021/12/13 05:22:06;;;;;;;1.75;1.27;;;9.10;99.90;;;;;;4957083;28;20130;-84
2021/12/13 05:24:41;;;;;;;5.40;1.95;;;9.00;99.90;;;;;;4957762;28;20051;-86
2021/12/13 05:27:14;;;;;;;1.30;0.98;;;9.00;99.90;;;;;;4957454;28;20488;-86
2021/12/13 05:29:45;;;;;;;3.30;3.03;;;9.00;99.90;;;;;;4972593;28;20054;-84
2021/12/13 05:32:30;;;;;;;0.52;0.52;;;8.90;99.90;;;;;;4957254;28;20058;-83
2021/12/13 05:35:26;;;;;;;0.95;0.95;;;8.90;99.90;;;;;;4957905;28;20051;-84
2021/12/13 05:37:56;;;;;;;1.55;1.50;;;8.90;99.90;;;;;;4861966;29;20057;-85
2021/12/13 05:40:33;;;;;;;1.52;1.42;;;8.90;99.90;;;;;;4877291;29;20068;-84
2021/12/13 05:43:41;;;;;;;0.73;0.73;;;8.90;99.90;;;;;;5131988;23;20030;-87
2021/12/13 05:46:14;;;;;;;0.75;0.75;;;8.80;99.90;;;;;;4993101;28;20516;-84
2021/12/13 05:48:57;;;;;;;0.95;0.43;;;8.80;99.90;;;;;;4995296;28;20516;-84
2021/12/13 05:51:36;;;;;;;3.88;1.65;;;8.80;99.90;;;;;;5013072;28;20070;-84
2021/12/13 05:54:25;;;;;;;1.10;0.98;;;8.80;99.90;;;;;;5013028;28;20049;-84
2021/12/13 05:56:59;;;;;;;1.73;1.70;;;8.80;99.90;;;;;;4995356;28;20038;-84
2021/12/13 05:59:29;;;;;;;0.60;0.60;;;8.80;99.90;;;;;;4995333;28;20049;-82
2021/12/13 06:02:08;;;;;;;1.05;0.80;;;8.80;99.90;;;;;;4995366;28;20054;-83
2021/12/13 06:04:33;;;;;;;1.17;1.05;;;8.80;99.90;;;;;;4995450;28;20065;-84
2021/12/13 06:06:59;;;;;;;3.13;0.93;;;8.80;99.90;;;;;;5012600;28;20042;-84
2021/12/13 06:09:45;;;;;;;1.40;0.52;;;8.70;99.90;;;;;;5013041;28;20053;-84
2021/12/13 06:12:40;;;;;;;0.10;0.10;;;8.70;99.90;;;;;;4932862;29;20075;-84
2021/12/13 06:15:20;;;;;;;2.75;1.00;;;8.70;99.90;;;;;;4932738;29;20504;-84
2021/12/13 06:17:55;;;;;;;0.57;0.57;;;8.80;99.90;;;;;;4917208;29;20092;-84
2021/12/13 06:20:34;;;;;;;2.47;0.95;;;8.70;99.90;;;;;;4932810;29;20039;-84
2021/12/13 06:23:19;;;;;;;1.17;0.50;;;8.70;99.90;;;;;;4917135;29;20604;-85
2021/12/13 06:25:51;;;;;;;2.15;2.05;;;8.70;99.90;;;;;;4935424;29;20059;-78
2021/12/13 06:28:32;;;;;;;1.67;1.58;;;8.70;99.90;;;;;;4949773;29;20039;-80
2021/12/13 06:31:03;;;;;;;1.15;0.68;;;8.70;99.90;;;;;;4941722;29;20105;-84
2021/12/13 06:33:51;;;;;;;0.60;0.60;;;8.70;99.90;;;;;;4922249;29;20051;-84
2021/12/13 06:36:30;;;;;;;0.25;0.25;;;8.70;99.90;;;;;;4936999;29;20060;-84
2021/12/13 06:39:18;;;;;;;2.63;2.50;;;8.70;99.90;;;;;;4921000;29;20488;-85
2021/12/13 06:41:58;;;;;;;1.10;0.95;;;8.70;99.90;;;;;;4921207;29;20062;-83
2021/12/13 06:48:47;;;;;;;0.50;0.25;;;8.70;99.90;;;;;;4943295;28;20152;-85
2021/12/13 06:51:16;;;;;;;0.85;0.70;;;8.60;99.90;;;;;;4995723;28;20434;-84
2021/12/13 06:54:01;;;;;;;1.10;0.50;;;8.60;99.90;;;;;;4995678;28;20054;-85
2021/12/13 06:56:30;;;;;;;0.90;0.88;;;8.70;99.90;;;;;;4996457;28;20058;-85
2021/12/13 06:58:58;;;;;;;1.83;1.73;;;8.70;99.90;;;;;;4995026;28;20046;-82
2021/12/13 07:01:29;;;;;;;1.63;1.52;;;8.60;99.90;;;;;;4994998;28;20058;-83
2021/12/13 07:04:07;;;;;;;0.40;0.40;;;8.60;99.90;;;;;;4995027;28;20050;-84
2021/12/13 07:06:34;;;;;;;0.93;0.85;;;8.60;99.90;;;;;;4994927;28;20555;-83
2021/12/13 07:09:21;;;;;;;4.40;1.65;;;8.60;99.90;;;;;;4995103;28;20046;-83
2021/12/13 07:11:54;;;;;;;1.02;1.02;;;8.60;99.90;;;;;;4995151;28;20109;-84
2021/12/13 07:14:36;;;;;;;0.40;0.40;;;8.60;99.90;;;;;;4995016;28;20050;-84
2021/12/13 07:17:15;;;;;;;2.10;1.17;;;8.70;99.90;;;;;;4994556;28;20129;-78
2021/12/13 07:19:45;;;;;;;1.52;0.95;;;8.60;99.90;;;;;;4994672;28;20054;-83
2021/12/13 07:22:19;;;;;;;0.60;0.60;;;8.70;99.90;;;;;;4996389;28;20046;-83
2021/12/13 07:24:53;;;;;;;3.72;1.95;;;8.70;99.90;;;;;;4996104;28;20053;-84
2021/12/13 07:27:28;;;;;;;1.80;1.58;;;8.70;99.90;;;;;;4994471;28;20057;-79
2021/12/13 07:30:04;;;;;;;4.82;2.58;;;8.80;99.90;;;;;;4995764;28;20046;-82
2021/12/13 07:32:40;;;;;;;1.33;1.25;;;8.70;99.90;;;;;;4978397;28;20042;-83
2021/12/13 07:35:26;;;;;;;1.63;1.58;;;8.70;99.90;;;;;;4994300;28;20051;-78
2021/12/13 07:37:59;;;;;;;4.45;3.25;;;8.70;99.90;;;;;;4993462;28;20520;-80
2021/12/13 07:40:34;;;;;;;22.27;5.75;;;8.70;99.90;;;;;;4994664;28;20045;-84
2021/12/13 07:43:05;;;;;;;7.05;3.22;;;8.70;99.90;;;;;;4993943;28;20054;-85
2021/12/13 07:45:42;;;;;;;5.60;5.18;;;8.70;99.90;;;;;;4994238;28;20053;-84
2021/12/13 07:48:27;;;;;;;10.85;5.55;;;8.70;99.90;;;;;;4993831;28;20385;-84
2021/12/13 07:51:20;;;;;;;5.82;5.07;;;8.70;99.90;;;;;;4994326;28;20046;-84
2021/12/13 07:53:51;;;;;;;4.07;1.65;;;8.70;99.90;;;;;;4995605;28;20517;-85
2021/12/13 07:56:38;;;;;;;6.40;2.13;;;8.70;99.90;;;;;;4994032;28;20050;-85
2021/12/13 07:59:18;;;;;;;5.28;3.60;;;8.60;99.90;;;;;;4993957;28;20118;-84
2021/12/13 08:02:08;;;;;;;2.83;2.67;;;8.60;99.90;;;;;;4995199;28;20054;-85
2021/12/13 08:04:44;;;;;;;7.32;5.97;;;8.70;99.90;;;;;;4993857;28;20047;-84
2021/12/13 08:07:45;;;;;;;10.60;5.07;;;8.70;99.90;;;;;;4992954;28;20049;-84
2021/12/13 08:10:28;;;;;;;4.07;3.03;;;8.70;99.90;;;;;;4957349;28;20137;-83
2021/12/13 08:13:20;;;;;;;3.92;3.15;;;8.70;99.90;;;;;;4973220;28;20087;-83
2021/12/13 08:15:55;;;;;;;4.50;3.38;;;8.70;99.90;;;;;;4957086;28;20062;-80
2021/12/13 08:18:22;;;;;;;5.13;1.65;;;8.70;99.90;;;;;;4973235;28;20046;-82
2021/12/13 08:20:55;;;;;;;6.72;3.42;;;8.70;99.90;;;;;;4973221;28;20082;-85
2021/12/13 08:23:35;;;;;;;4.18;3.97;;;8.70;99.90;;;;;;4972938;28;20038;-83
2021/12/13 08:26:04;;;;;;;2.75;2.58;;;8.70;99.90;;;;;;4973054;28;20051;-84
2021/12/13 08:28:43;;;;;;;3.70;3.50;;;8.70;99.90;;;;;;4972703;28;20051;-84
2021/12/13 08:31:21;;;;;;;3.00;2.80;;;8.70;99.90;;;;;;4972869;28;20043;-84
2021/12/13 08:33:58;;;;;;;7.22;2.83;;;8.70;99.90;;;;;;4972724;28;20062;-84
2021/12/13 08:36:24;;;;;;;1.70;1.55;;;8.80;99.90;;;;;;4956623;28;20638;-84
2021/12/13 08:39:08;;;;;;;1.65;1.58;;;8.80;99.90;;;;;;4972784;28;20137;-83
2021/12/13 08:41:33;;;;;;;10.65;4.53;;;8.80;99.90;;;;;;4972507;28;20058;-83
2021/12/13 08:44:10;;;;;;;3.78;3.47;;;8.80;99.90;;;;;;4956757;28;20043;-83
2021/12/13 08:46:42;;;;;;;3.22;1.80;;;8.80;99.90;;;;;;4990152;28;20057;-84
2021/12/13 08:49:23;;;;;;;4.40;3.33;;;8.80;99.90;;;;;;4992872;28;20051;-83
2021/12/13 08:52:01;;;;;;;8.73;2.53;;;8.80;99.90;;;;;;4992802;28;20090;-82
2021/12/13 08:54:38;;;;;;;5.03;4.60;;;8.80;99.90;;;;;;4993151;28;20054;-84
2021/12/13 08:57:10;;;;;;;2.45;2.25;;;8.80;99.90;;;;;;4992798;28;20050;-84
2021/12/13 08:59:48;;;;;;;2.35;2.25;;;8.80;99.90;;;;;;4992908;28;20050;-83
2021/12/13 09:02:14;;;;;;;4.30;2.42;;;8.90;99.90;;;;;;4993936;28;20042;-84
2021/12/13 09:04:53;;;;;;;1.85;1.75;;;8.80;99.90;;;;;;4992864;28;20509;-85
2021/12/13 09:07:21;;;;;;;4.03;2.50;;;8.90;99.90;;;;;;4993571;28;20046;-84
2021/12/13 09:09:47;;;;;;;2.33;2.03;;;8.90;99.90;;;;;;4993860;28;20069;-85
2021/12/13 09:12:24;;;;;;;3.90;1.83;;;8.90;99.90;;;;;;4992658;28;20170;-84
2021/12/13 09:14:53;;;;;;;3.78;2.03;;;8.90;99.90;;;;;;4992339;28;20053;-83
2021/12/13 09:17:27;;;;;;;2.53;2.33;;;8.90;99.90;;;;;;4992458;28;20048;-83
2021/12/13 09:20:10;;;;;;;1.27;1.05;;;8.90;99.90;;;;;;4992413;28;20046;-84
2021/12/13 09:22:52;;;;;;;10.80;1.52;;;8.90;99.90;;;;;;4993602;28;20105;-84
2021/12/13 09:25:29;;;;;;;2.13;1.95;;;8.90;99.90;;;;;;4992580;28;20121;-84
2021/12/13 09:28:14;;;;;;;2.90;2.45;;;8.90;99.90;;;;;;4992113;28;20410;-84
2021/12/13 09:30:53;;;;;;;1.83;1.30;;;8.90;99.90;;;;;;4992243;28;20042;-83
2021/12/13 09:33:23;;;;;;;8.63;3.22;;;8.90;99.90;;;;;;5008373;28;20521;-82
2021/12/13 09:35:50;;;;;;;1.65;1.55;;;8.90;99.90;;;;;;4991691;28;20042;-82
2021/12/13 09:38:40;;;;;;;5.10;4.68;;;8.90;99.90;;;;;;4992172;28;20050;-85
2021/12/13 09:41:18;;;;;;;1.48;1.38;;;8.90;99.90;;;;;;4992483;28;20042;-84
2021/12/13 09:44:01;;;;;;;4.28;2.40;;;8.90;99.90;;;;;;4992447;28;20050;-79
2021/12/13 09:46:43;;;;;;;1.52;1.38;;;8.90;99.90;;;;;;4991957;28;20057;-84
2021/12/13 09:49:23;;;;;;;4.93;2.47;;;9.00;99.90;;;;;;5005676;28;20057;-84
2021/12/13 09:52:00;;;;;;;3.17;1.98;;;9.00;99.90;;;;;;5012695;28;20049;-83
2021/12/13 09:54:31;;;;;;;2.50;2.40;;;9.00;99.90;;;;;;5013102;28;20042;-84
2021/12/13 09:57:03;;;;;;;2.83;2.33;;;9.00;99.90;;;;;;5012520;28;20044;-85
2021/12/13 09:59:35;;;;;;;4.20;3.90;;;9.00;99.90;;;;;;5013101;28;20079;-86
2021/12/13 10:02:04;;;;;;;3.58;2.70;;;9.10;99.90;;;;;;5014304;28;20053;-85
2021/12/13 10:04:36;;;;;;;6.50;3.47;;;9.10;99.90;;;;;;5012533;28;20049;-84
2021/12/13 10:07:15;;;;;;;11.23;2.00;;;9.10;99.90;;;;;;5012100;28;20038;-81
2021/12/13 10:09:50;;;;;;;2.00;1.88;;;9.10;99.90;;;;;;5012741;28;20529;-83
2021/12/13 10:12:20;;;;;;;1.95;1.60;;;9.10;99.90;;;;;;5012782;28;20532;-85
2021/12/13 10:14:56;;;;;;;5.43;1.45;;;9.10;99.90;;;;;;4995005;28;20168;-85
2021/12/13 10:17:25;;;;;;;5.20;2.45;;;9.10;99.90;;;;;;5012528;28;20440;-85
2021/12/13 10:19:54;;;;;;;6.90;2.22;;;9.10;99.90;;;;;;5012378;28;20045;-85
2021/12/13 10:22:29;;;;;;;4.10;2.33;;;9.20;99.90;;;;;;5012602;28;20440;-85
2021/12/13 10:25:07;;;;;;;2.15;2.05;;;9.20;99.90;;;;;;4994936;28;20524;-84
2021/12/13 10:27:33;;;;;;;2.28;2.08;;;9.30;99.90;;;;;;5011224;28;20038;-85
2021/12/13 10:30:02;;;;;;;12.52;5.15;;;9.30;99.90;;;;;;5011419;28;20169;-85
2021/12/13 10:32:34;;;;;;;9.88;1.92;;;9.30;99.90;;;;;;5010991;28;20037;-85
2021/12/13 10:35:06;;;;;;;;;;;9.30;99.90;;;;;;4995398;28;20073;-84
2021/12/13 10:37:40;;;;;;;1.42;1.15;;;9.30;99.90;;;;;;5011265;28;19918;-85
2021/12/13 10:40:42;;;;;;;7.68;3.63;;;9.30;99.90;;;;;;4994855;28;20115;-84
2021/12/13 10:43:15;;;;;;;2.20;2.03;;;9.40;99.90;;;;;;4994498;28;20045;-84
2021/12/13 10:45:55;;;;;;;3.90;2.65;;;9.40;99.90;;;;;;4994897;28;20505;-78
2021/12/13 10:48:26;;;;;;;2.78;2.55;;;9.40;99.90;;;;;;4995647;28;20053;-85
2021/12/13 10:51:12;;;;;;;5.25;3.30;;;9.40;99.90;;;;;;4994668;28;20490;-84
2021/12/13 10:53:41;;;;;;;1.80;1.48;;;9.40;99.90;;;;;;5011062;28;20099;-82
2021/12/13 10:56:12;;;;;;;2.78;2.55;;;9.40;99.90;;;;;;5012383;28;20048;-83
2021/12/13 10:58:45;;;;;;;2.90;2.70;;;9.40;99.90;;;;;;5012193;28;20513;-83
2021/12/13 11:01:14;;;;;;;4.10;2.67;;;9.50;99.90;;;;;;5012134;28;20081;-81
2021/12/13 11:03:41;;;;;;;2.03;1.75;;;9.40;99.90;;;;;;5012147;28;20042;-80
2021/12/13 11:06:08;;;;;;;2.30;1.15;;;9.50;99.90;;;;;;5011896;28;20054;-83
2021/12/13 11:08:41;;;;;;;2.78;2.35;;;9.50;99.90;;;;;;5012901;28;20053;-82
2021/12/13 11:11:23;;;;;;;1.65;1.40;;;9.50;99.90;;;;;;5012792;28;20046;-82
2021/12/13 11:13:50;;;;;;;;;;;9.50;99.90;;;;;;5012555;28;20132;-80
2021/12/13 11:16:23;;;;;;;1.85;1.83;;;9.50;99.90;;;;;;5012087;28;20358;-83
2021/12/13 11:18:50;;;;;;;3.15;2.10;;;9.60;99.90;;;;;;5013134;28;20483;-84
2021/12/13 11:21:26;;;;;;;6.05;2.28;;;9.60;99.90;;;;;;4998404;28;20476;-85
2021/12/13 11:23:54;;;;;;;3.42;3.13;;;9.60;99.90;;;;;;5015578;28;20090;-85
2021/12/13 11:26:25;;;;;;;1.35;1.35;;;9.60;99.90;;;;;;4997940;28;20054;-85
2021/12/13 11:28:51;;;;;;;4.75;2.50;;;9.60;99.90;;;;;;5015418;28;20124;-86
2021/12/13 11:31:40;;;;;;;4.35;3.78;;;9.70;99.90;;;;;;5015299;28;20030;-84
2021/12/13 11:34:50;;;;;;;3.28;2.97;;;9.70;99.90;;;;;;4997916;28;20104;-84
2021/12/13 11:37:47;;;;;;;2.47;1.75;;;9.70;99.90;;;;;;5015897;28;20504;-82
2021/12/13 11:40:45;;;;;;;2.40;2.22;;;9.70;99.90;;;;;;5015076;28;20042;-79
2021/12/13 11:43:20;;;;;;;2.78;1.70;;;9.70;99.90;;;;;;5013823;28;20060;-83
2021/12/13 11:46:02;;;;;;;1.90;1.65;;;9.70;99.90;;;;;;5014243;28;20050;-83
2021/12/13 11:48:49;;;;;;;3.58;2.45;;;9.70;99.90;;;;;;5017208;28;20056;-83
2021/12/13 11:51:48;;;;;;;0.68;0.68;;;9.70;99.90;;;;;;5015842;28;20536;-82
2021/12/13 11:54:34;;;;;;;1.50;1.40;;;9.70;99.90;;;;;;5014513;28;20061;-86
2021/12/13 11:57:37;;;;;;;1.80;1.65;;;9.70;99.90;;;;;;5015185;28;20066;-83
2021/12/13 12:00:24;;;;;;;2.10;2.00;;;9.70;99.90;;;;;;4997496;28;20192;-82
2021/12/13 12:03:24;;;;;;;1.65;1.50;;;9.70;99.90;;;;;;4997570;28;20053;-82
2021/12/13 12:06:07;;;;;;;3.28;3.05;;;9.60;99.90;;;;;;4997395;28;20092;-83
2021/12/13 12:09:09;;;;;;;3.58;1.00;;;9.70;99.90;;;;;;5014782;28;20058;-84
2021/12/13 12:12:12;;;;;;;2.80;2.05;;;9.70;99.90;;;;;;5013549;28;20092;-83
2021/12/13 12:14:38;;;;;;;3.53;1.90;;;9.70;99.90;;;;;;5014871;28;20049;-82
2021/12/13 12:17:05;;;;;;;2.15;1.80;;;9.70;99.90;;;;;;5014566;28;20045;-85
2021/12/13 12:19:35;;;;;;;6.13;1.77;;;9.70;99.90;;;;;;5014438;28;20046;-83
2021/12/13 12:22:10;;;;;;;2.80;2.22;;;9.70;99.90;;;;;;4997127;28;20390;-84
2021/12/13 12:24:59;;;;;;;1.38;1.27;;;9.80;99.90;;;;;;4997160;28;20165;-83
2021/12/13 12:27:30;;;;;;;11.93;4.10;;;9.70;99.90;;;;;;4996810;28;20436;-86
2021/12/13 12:30:10;;;;;;;7.97;2.40;;;9.70;99.90;;;;;;5012784;28;20540;-83
2021/12/13 12:32:40;;;;;;;2.05;1.95;;;9.70;99.90;;;;;;5014277;28;20042;-82
2021/12/13 12:35:14;;;;;;;4.25;2.45;;;9.70;99.90;;;;;;5012777;28;20050;-83
2021/12/13 12:38:00;;;;;;;1.42;1.30;;;9.70;99.90;;;;;;5014166;28;20049;-82
2021/12/13 12:40:50;;;;;;;1.25;0.82;;;9.70;99.90;;;;;;5014237;28;20041;-84
2021/12/13 12:43:23;;;;;;;2.42;1.63;;;9.70;99.90;;;;;;5015396;28;20482;-80
2021/12/13 12:45:56;;;;;;;3.67;1.85;;;9.70;99.90;;;;;;4996986;28;20053;-79
2021/12/13 12:48:21;;;;;;;1.83;1.58;;;9.80;99.90;;;;;;4980108;28;20062;-80
2021/12/13 12:50:59;;;;;;;2.60;1.33;;;9.70;99.90;;;;;;4996895;28;20053;-81
2021/12/13 12:53:45;;;;;;;2.28;2.10;;;9.80;99.90;;;;;;4996752;28;20128;-82
2021/12/13 12:56:18;;;;;;;5.00;1.95;;;9.80;99.90;;;;;;4996132;28;20045;-83
2021/12/13 12:58:56;;;;;;;0.95;0.95;;;9.80;99.90;;;;;;4996245;28;20049;-82
2021/12/13 13:01:37;;;;;;;1.98;1.58;;;9.70;99.90;;;;;;4996040;28;20041;-80
2021/12/13 13:04:08;;;;;;;2.53;1.75;;;9.70;99.90;;;;;;5013743;28;20113;-84
2021/12/13 13:06:34;;;;;;;2.50;2.25;;;9.70;99.90;;;;;;5013734;28;20046;-83
2021/12/13 13:09:08;;;;;;;2.58;1.02;;;9.70;99.90;;;;;;5013719;28;20042;-85
2021/12/13 13:11:36;;;;;;;4.30;1.95;;;9.70;99.90;;;;;;4996452;28;20137;-84
2021/12/13 13:14:14;;;;;;;5.45;3.13;;;9.80;99.90;;;;;;5013449;28;20084;-80
2021/12/13 13:16:45;;;;;;;1.48;1.38;;;9.70;99.90;;;;;;5013772;28;20054;-84
2021/12/13 13:19:22;;;;;;;4.28;2.25;;;9.70;99.90;;;;;;5013702;28;20405;-84
2021/12/13 13:21:48;;;;;;;2.63;2.42;;;9.80;99.90;;;;;;4996448;28;20133;-88
2021/12/13 13:24:15;;;;;;;2.50;1.40;;;9.80;99.90;;;;;;5013807;28;20196;-83
2021/12/13 13:26:43;;;;;;;3.92;3.00;;;9.90;99.90;;;;;;5013709;28;20584;-83
2021/12/13 13:29:14;;;;;;;3.03;2.35;;;9.80;99.90;;;;;;4996505;28;20104;-84
2021/12/13 13:31:53;;;;;;;8.13;2.92;;;9.80;99.90;;;;;;4996663;28;20217;-86
2021/12/13 13:34:27;;;;;;;2.05;1.95;;;9.80;99.90;;;;;;5002392;28;20089;-80
2021/12/13 13:37:10;;;;;;;2.22;2.10;;;10.00;99.90;;;;;;5003363;28;20045;-88
2021/12/13 13:39:45;;;;;;;1.98;1.77;;;9.90;99.90;;;;;;5013161;28;20056;-85
2021/12/13 13:42:20;;;;;;;4.78;4.38;;;9.80;99.90;;;;;;5013597;28;20059;-86
2021/12/13 13:45:23;;;;;;;3.10;1.27;;;9.80;99.90;;;;;;4996523;28;20057;-83
2021/12/13 13:48:12;;;;;;;2.53;2.33;;;9.90;99.90;;;;;;4952977;29;20054;-82
2021/12/13 13:50:46;;;;;;;5.78;1.85;;;9.90;99.90;;;;;;4952571;29;20167;-81
2021/12/13 13:53:29;;;;;;;13.52;1.63;;;9.90;99.90;;;;;;4952641;29;20480;-81
2021/12/13 13:56:05;;;;;;;3.88;1.67;;;10.00;99.90;;;;;;4952441;29;20056;-81
2021/12/13 13:58:36;;;;;;;2.90;2.08;;;10.00;99.90;;;;;;4936354;29;20051;-85
2021/12/13 14:01:19;;;;;;;0.82;0.82;;;10.00;99.90;;;;;;4952668;29;20059;-82
2021/12/13 14:03:54;;;;;;;1.80;1.73;;;9.90;99.90;;;;;;4953305;29;20098;-88